Time;durP1;ratioP1;P1;durP2;ratioP2;P2;SDS_P1;SDS_P2;PMS_P1;PMS_P2;Temp;Humidity;BMP_temperature;BMP_pressure;BME280_temperature;BME280_humidity;BME280_pressure;Samples;Min_cycle;Max_cycle;Signal;HPM_P1;HPM_P2
2021/06/18 00:01:03;;;;;;;7.00;6.40;;;27.20;85.10;;;;;;5108369;28;20263;-73
2021/06/18 00:03:30;;;;;;;7.15;6.45;;;27.20;85.20;;;;;;5108430;28;20237;-73
2021/06/18 00:05:56;;;;;;;6.60;6.10;;;27.10;85.00;;;;;;5107948;28;20283;-73
2021/06/18 00:08:23;;;;;;;7.22;5.93;;;27.10;85.40;;;;;;5108315;28;20230;-73
2021/06/18 00:10:50;;;;;;;6.80;6.07;;;27.10;85.60;;;;;;5108385;28;20255;-73
2021/06/18 00:13:16;;;;;;;7.32;6.00;;;27.00;85.50;;;;;;5108276;28;20202;-73
2021/06/18 00:15:43;;;;;;;6.03;5.60;;;27.00;85.60;;;;;;5108053;28;20231;-73
2021/06/18 00:18:11;;;;;;;7.55;6.40;;;27.10;85.60;;;;;;5108363;28;20290;-73
2021/06/18 00:20:38;;;;;;;6.72;6.15;;;27.00;85.90;;;;;;5108359;28;20283;-73
2021/06/18 00:23:04;;;;;;;6.97;6.38;;;27.00;85.90;;;;;;5108297;28;20237;-73
2021/06/18 00:25:31;;;;;;;7.63;6.22;;;27.00;85.90;;;;;;5108312;28;20210;-73
2021/06/18 00:27:58;;;;;;;6.95;6.35;;;27.00;86.00;;;;;;5108676;28;20570;-73
2021/06/18 00:30:25;;;;;;;7.22;6.60;;;26.90;86.10;;;;;;5112090;28;20263;-73
2021/06/18 00:32:51;;;;;;;7.43;6.80;;;26.90;86.20;;;;;;5112024;28;20226;-73
2021/06/18 00:35:19;;;;;;;6.82;6.18;;;26.90;86.20;;;;;;5111515;28;20656;-73
2021/06/18 00:37:46;;;;;;;6.60;6.10;;;26.90;86.40;;;;;;5111766;28;20666;-73
2021/06/18 00:40:13;;;;;;;7.03;6.43;;;26.90;86.50;;;;;;5111609;28;20202;-73
2021/06/18 00:42:40;;;;;;;7.20;6.60;;;26.80;86.60;;;;;;5111898;28;20283;-73
2021/06/18 00:45:08;;;;;;;7.45;6.47;;;26.80;86.80;;;;;;5111486;28;20210;-76
2021/06/18 00:47:37;;;;;;;6.85;6.15;;;26.80;86.80;;;;;;5111958;28;20255;-76
2021/06/18 00:50:04;;;;;;;6.90;6.40;;;26.60;87.10;;;;;;5111862;27;20209;-76
2021/06/18 00:52:32;;;;;;;7.32;6.72;;;26.60;87.50;;;;;;5111704;28;20209;-76
2021/06/18 00:54:59;;;;;;;7.75;6.30;;;26.50;88.30;;;;;;5111675;28;20214;-76
2021/06/18 00:57:27;;;;;;;7.43;6.82;;;26.20;89.60;;;;;;5111578;28;20247;-77
2021/06/18 00:59:53;;;;;;;7.28;6.68;;;26.10;90.00;;;;;;5111715;28;20202;-77
2021/06/18 01:02:20;;;;;;;8.15;6.95;;;26.10;90.20;;;;;;5111204;28;20688;-77
2021/06/18 01:04:47;;;;;;;7.75;7.10;;;26.00;90.20;;;;;;5111230;28;20242;-76
2021/06/18 01:07:18;;;;;;;8.68;7.13;;;26.00;90.30;;;;;;5111298;28;20274;-74
2021/06/18 01:09:58;;;;;;;7.78;7.03;;;25.90;90.60;;;;;;5111229;28;20716;-76
2021/06/18 01:12:27;;;;;;;7.97;7.15;;;26.00;90.60;;;;;;5111345;28;20198;-76
2021/06/18 01:14:59;;;;;;;8.65;7.40;;;26.10;90.80;;;;;;5111063;28;20206;-76
2021/06/18 01:17:32;;;;;;;7.68;6.50;;;26.10;90.80;;;;;;5111398;28;20212;-75
2021/06/18 01:20:10;;;;;;;8.00;7.22;;;26.20;90.90;;;;;;5110887;27;20717;-75
2021/06/18 01:22:38;;;;;;;6.95;6.38;;;26.10;90.70;;;;;;5111130;28;20217;-75
2021/06/18 01:25:16;;;;;;;7.38;6.80;;;26.20;90.80;;;;;;5111019;28;20217;-73
2021/06/18 01:27:45;;;;;;;7.85;6.82;;;26.20;90.80;;;;;;5111013;28;20194;-73
2021/06/18 01:30:15;;;;;;;7.75;7.15;;;26.20;90.60;;;;;;5110520;28;20672;-75
2021/06/18 01:32:44;;;;;;;7.40;6.80;;;26.20;90.70;;;;;;5111117;28;20302;-75
2021/06/18 01:35:16;;;;;;;7.88;7.28;;;26.20;90.60;;;;;;5110784;28;20198;-75
2021/06/18 01:37:45;;;;;;;7.82;7.07;;;26.20;90.70;;;;;;5111020;28;20248;-74
2021/06/18 01:40:13;;;;;;;7.55;7.05;;;26.20;90.70;;;;;;5109941;28;20202;-74
2021/06/18 01:42:43;;;;;;;10.65;7.00;;;26.20;90.60;;;;;;5110445;28;21048;-75
2021/06/18 01:45:14;;;;;;;8.00;7.40;;;26.20;90.40;;;;;;5110516;28;20213;-75
2021/06/18 01:47:42;;;;;;;10.23;7.35;;;26.20;90.40;;;;;;5110611;28;20637;-75
2021/06/18 01:50:12;;;;;;;8.88;7.18;;;26.20;90.60;;;;;;5110587;28;20251;-75
2021/06/18 01:52:41;;;;;;;7.53;7.03;;;26.00;90.50;;;;;;5110659;28;20214;-75
2021/06/18 01:55:10;;;;;;;8.13;7.32;;;26.00;90.50;;;;;;5110261;28;20259;-75
2021/06/18 01:57:40;;;;;;;7.97;7.38;;;26.00;90.50;;;;;;5110538;28;20214;-74
2021/06/18 02:00:08;;;;;;;7.97;7.22;;;26.00;90.60;;;;;;5110117;28;20210;-75
2021/06/18 02:02:37;;;;;;;8.10;7.25;;;26.00;90.60;;;;;;5110207;28;20299;-74
2021/06/18 02:05:05;;;;;;;7.88;7.25;;;26.00;90.50;;;;;;5109985;28;20642;-76
2021/06/18 02:07:33;;;;;;;8.13;7.45;;;26.00;90.40;;;;;;5110085;28;20613;-74
2021/06/18 02:10:01;;;;;;;7.55;7.05;;;26.10;90.40;;;;;;5109811;28;20621;-74
2021/06/18 02:12:28;;;;;;;7.35;6.75;;;26.00;90.50;;;;;;5110236;27;20202;-74
2021/06/18 02:14:57;;;;;;;7.97;7.38;;;26.00;90.60;;;;;;5110154;28;21074;-74
2021/06/18 02:17:25;;;;;;;7.68;7.10;;;25.90;90.70;;;;;;5110075;28;20198;-74
2021/06/18 02:19:56;;;;;;;7.97;7.38;;;25.90;90.90;;;;;;5110040;28;20266;-74
2021/06/18 02:22:24;;;;;;;7.90;7.20;;;25.90;91.00;;;;;;5109667;28;20190;-74
2021/06/18 02:24:53;;;;;;;7.32;6.88;;;25.90;91.10;;;;;;5109912;27;20854;-74
2021/06/18 02:27:20;;;;;;;8.15;7.50;;;25.90;91.60;;;;;;5109444;28;20781;-74
2021/06/18 02:29:47;;;;;;;8.02;7.25;;;25.90;91.40;;;;;;5109688;28;20270;-74
2021/06/18 02:32:14;;;;;;;8.52;7.82;;;25.80;91.30;;;;;;5109606;28;20361;-72
2021/06/18 02:34:42;;;;;;;8.07;7.20;;;25.80;91.40;;;;;;5109658;27;20214;-74
2021/06/18 02:37:12;;;;;;;8.48;7.55;;;25.80;91.40;;;;;;5109660;28;20206;-74
2021/06/18 02:39:42;;;;;;;8.32;7.63;;;25.80;91.10;;;;;;5109745;28;20190;-74
2021/06/18 02:42:09;;;;;;;9.98;7.50;;;25.80;91.20;;;;;;5109563;28;20190;-73
2021/06/18 02:44:38;;;;;;;8.38;7.70;;;25.70;91.30;;;;;;5109450;28;20234;-73
2021/06/18 02:47:09;;;;;;;8.25;7.65;;;25.60;91.50;;;;;;5108978;28;20206;-74
2021/06/18 02:49:42;;;;;;;8.25;7.53;;;25.50;91.80;;;;;;5109502;28;20206;-73
2021/06/18 02:52:15;;;;;;;8.20;7.47;;;25.40;91.90;;;;;;5109356;28;20198;-77
2021/06/18 02:54:46;;;;;;;8.32;7.63;;;25.40;91.90;;;;;;5109620;28;20198;-77
2021/06/18 02:57:20;;;;;;;8.32;7.70;;;25.40;92.30;;;;;;5109482;28;20228;-76
2021/06/18 02:59:58;;;;;;;8.27;7.60;;;25.20;92.70;;;;;;5109352;28;20667;-76
2021/06/18 03:02:31;;;;;;;8.25;7.43;;;25.20;92.60;;;;;;5109221;28;20190;-74
2021/06/18 03:04:59;;;;;;;8.07;7.30;;;25.20;92.30;;;;;;5113836;27;20236;-74
2021/06/18 03:07:29;;;;;;;7.80;7.18;;;25.20;92.20;;;;;;5120422;27;20618;-76
2021/06/18 03:10:00;;;;;;;8.10;7.40;;;25.20;92.50;;;;;;5125862;27;20235;-75
2021/06/18 03:12:28;;;;;;;7.95;7.07;;;25.20;92.30;;;;;;5119125;27;20277;-75
2021/06/18 03:14:57;;;;;;;14.90;7.38;;;25.30;92.00;;;;;;5120661;27;20198;-75
2021/06/18 03:17:25;;;;;;;8.00;7.30;;;25.30;91.90;;;;;;5115618;27;20241;-75
2021/06/18 03:19:56;;;;;;;8.00;6.93;;;25.30;91.90;;;;;;5115324;27;20201;-76
2021/06/18 03:22:24;;;;;;;7.78;7.05;;;25.30;92.00;;;;;;5114998;27;20206;-75
2021/06/18 03:24:55;;;;;;;7.35;6.75;;;25.40;92.20;;;;;;5126962;27;20278;-75
2021/06/18 03:27:23;;;;;;;11.25;7.35;;;25.30;91.90;;;;;;5127386;27;20242;-76
2021/06/18 03:29:50;;;;;;;7.38;6.65;;;25.30;92.00;;;;;;5127271;27;20254;-75
2021/06/18 03:32:19;;;;;;;8.10;6.93;;;25.30;92.00;;;;;;5127201;27;20352;-76
2021/06/18 03:34:46;;;;;;;7.88;7.28;;;25.30;91.90;;;;;;5127201;28;20209;-75
2021/06/18 03:37:13;;;;;;;7.35;6.70;;;25.30;91.90;;;;;;5127247;28;20229;-74
2021/06/18 03:39:41;;;;;;;7.75;7.15;;;25.20;91.90;;;;;;5127114;27;20278;-75
2021/06/18 03:42:09;;;;;;;6.70;6.20;;;25.20;91.90;;;;;;5127006;28;20202;-76
2021/06/18 03:44:36;;;;;;;7.82;7.03;;;25.20;91.90;;;;;;5126815;28;20333;-75
2021/06/18 03:47:05;;;;;;;8.27;7.57;;;25.30;91.80;;;;;;5126816;28;20263;-75
2021/06/18 03:49:32;;;;;;;7.03;6.55;;;25.30;91.80;;;;;;5127179;28;20209;-76
2021/06/18 03:51:59;;;;;;;7.53;6.88;;;25.30;91.80;;;;;;5127150;27;20232;-76
2021/06/18 03:54:26;;;;;;;7.75;7.05;;;25.30;91.80;;;;;;5127650;27;20237;-76
2021/06/18 03:56:53;;;;;;;8.45;7.60;;;25.30;91.90;;;;;;5127806;27;20270;-76
2021/06/18 03:59:23;;;;;;;9.57;6.80;;;25.30;91.90;;;;;;5124656;28;20297;-77
2021/06/18 04:01:53;;;;;;;7.82;7.15;;;25.20;92.10;;;;;;5119608;28;20259;-75
2021/06/18 04:04:21;;;;;;;8.25;7.65;;;25.00;92.40;;;;;;5129763;27;20707;-76
2021/06/18 04:06:49;;;;;;;8.23;7.53;;;24.90;92.70;;;;;;5132059;27;20221;-75
2021/06/18 04:09:19;;;;;;;7.53;6.82;;;25.00;92.80;;;;;;5115640;27;20194;-74
2021/06/18 04:11:46;;;;;;;7.90;7.25;;;25.00;92.70;;;;;;5120988;27;20201;-76
2021/06/18 04:14:14;;;;;;;8.07;7.40;;;25.10;92.70;;;;;;5131604;27;20202;-77
2021/06/18 04:16:42;;;;;;;8.25;7.30;;;25.10;92.70;;;;;;5124322;27;20198;-76
2021/06/18 04:19:10;;;;;;;7.50;6.97;;;25.20;92.80;;;;;;5129086;27;20262;-77
2021/06/18 04:21:40;;;;;;;8.30;7.60;;;25.20;93.00;;;;;;5121875;27;20223;-77
2021/06/18 04:24:08;;;;;;;8.48;7.50;;;25.20;92.80;;;;;;5123667;27;20217;-77
2021/06/18 04:26:35;;;;;;;7.88;7.18;;;25.20;92.80;;;;;;5119174;27;20977;-77
2021/06/18 04:29:01;;;;;;;8.40;7.57;;;25.20;93.00;;;;;;5120464;27;20194;-76
2021/06/18 04:31:28;;;;;;;8.40;7.60;;;25.20;92.90;;;;;;5123181;27;20243;-76
2021/06/18 04:33:56;;;;;;;8.10;6.97;;;25.20;93.10;;;;;;5120572;27;20672;-76
2021/06/18 04:36:23;;;;;;;8.57;7.78;;;25.20;93.00;;;;;;5111462;28;20569;-76
2021/06/18 04:38:49;;;;;;;7.97;7.28;;;25.20;93.10;;;;;;5127171;27;20238;-75
2021/06/18 04:41:16;;;;;;;8.35;7.53;;;25.20;93.10;;;;;;5127821;27;20247;-76
2021/06/18 04:43:43;;;;;;;7.97;7.38;;;25.10;93.20;;;;;;5127610;27;20221;-76
2021/06/18 04:46:10;;;;;;;7.53;6.80;;;25.20;93.10;;;;;;5130846;27;20197;-76
2021/06/18 04:48:36;;;;;;;8.07;7.25;;;25.10;93.00;;;;;;5131081;27;20206;-77
2021/06/18 04:51:05;;;;;;;7.25;6.65;;;25.10;93.30;;;;;;5131062;27;20247;-77
2021/06/18 04:53:32;;;;;;;7.90;7.13;;;25.10;93.20;;;;;;5130823;27;20197;-76
2021/06/18 04:56:01;;;;;;;7.55;6.85;;;25.10;93.30;;;;;;5131110;27;20265;-77
2021/06/18 04:58:28;;;;;;;7.82;6.85;;;25.20;93.30;;;;;;5130870;27;20238;-76
2021/06/18 05:00:54;;;;;;;7.70;6.53;;;25.20;93.50;;;;;;5130855;27;20250;-76
2021/06/18 05:03:21;;;;;;;7.35;6.75;;;25.20;93.50;;;;;;5130146;27;20197;-76
2021/06/18 05:05:48;;;;;;;8.13;7.22;;;25.20;93.50;;;;;;5126610;27;20274;-77
2021/06/18 05:08:16;;;;;;;7.05;6.47;;;25.30;93.30;;;;;;5129449;27;20249;-76
2021/06/18 05:10:42;;;;;;;7.90;7.15;;;25.30;93.10;;;;;;5130879;27;20309;-77
2021/06/18 05:13:09;;;;;;;9.40;6.53;;;25.30;93.00;;;;;;5130525;27;20255;-77
2021/06/18 05:15:36;;;;;;;6.68;6.18;;;25.30;93.00;;;;;;5129607;27;20198;-77
2021/06/18 05:18:03;;;;;;;6.70;6.07;;;25.30;93.20;;;;;;5130625;27;20238;-76
2021/06/18 05:20:29;;;;;;;6.55;5.95;;;25.40;92.90;;;;;;5130504;27;20235;-76
2021/06/18 05:22:56;;;;;;;9.32;5.78;;;25.30;92.90;;;;;;5130880;27;20197;-74
2021/06/18 05:25:24;;;;;;;6.93;6.20;;;25.40;92.70;;;;;;5130424;27;20225;-75
2021/06/18 05:27:50;;;;;;;6.45;5.82;;;25.40;92.70;;;;;;5129978;27;20254;-73
2021/06/18 05:30:18;;;;;;;6.03;5.60;;;25.50;92.70;;;;;;5129958;27;20235;-73
2021/06/18 05:32:45;;;;;;;5.85;5.45;;;25.50;92.60;;;;;;5126690;27;20221;-73
2021/06/18 05:35:13;;;;;;;5.97;5.50;;;25.60;92.30;;;;;;5129430;27;20202;-73
2021/06/18 05:37:40;;;;;;;10.05;5.32;;;25.60;92.30;;;;;;5129997;27;20240;-73
2021/06/18 05:40:10;;;;;;;6.97;5.43;;;25.60;92.30;;;;;;5124286;27;20293;-73
2021/06/18 05:42:38;;;;;;;6.18;5.68;;;25.60;92.50;;;;;;5129171;27;20615;-73
2021/06/18 05:45:06;;;;;;;5.05;4.75;;;25.60;92.50;;;;;;5129509;27;20221;-73
2021/06/18 05:47:33;;;;;;;7.43;5.18;;;25.60;92.30;;;;;;5129554;27;20728;-73
2021/06/18 05:49:59;;;;;;;5.28;4.88;;;25.60;92.30;;;;;;5129832;27;20201;-74
2021/06/18 05:52:26;;;;;;;5.93;5.35;;;25.70;92.00;;;;;;5126750;27;20255;-72
2021/06/18 05:54:53;;;;;;;5.60;5.18;;;25.60;91.90;;;;;;5129823;27;20262;-73
2021/06/18 05:57:19;;;;;;;6.32;5.07;;;25.70;92.00;;;;;;5129567;27;20266;-73
2021/06/18 05:59:47;;;;;;;8.60;5.63;;;25.80;92.00;;;;;;5125709;27;20210;-73
2021/06/18 06:02:14;;;;;;;5.97;5.30;;;25.80;92.20;;;;;;5129519;27;20230;-73
2021/06/18 06:04:40;;;;;;;6.70;5.10;;;25.80;92.00;;;;;;5128994;27;20237;-73
2021/06/18 06:07:07;;;;;;;5.55;5.18;;;25.90;91.90;;;;;;5129343;27;20213;-73
2021/06/18 06:09:34;;;;;;;7.65;5.78;;;25.90;91.90;;;;;;5129773;27;20201;-73
2021/06/18 06:12:00;;;;;;;5.65;5.25;;;25.90;91.90;;;;;;5129660;27;20325;-73
2021/06/18 06:14:27;;;;;;;5.28;4.82;;;26.00;92.00;;;;;;5129368;27;20639;-73
2021/06/18 06:16:55;;;;;;;6.68;4.80;;;26.00;91.80;;;;;;5129363;27;20209;-73
2021/06/18 06:19:21;;;;;;;5.93;5.43;;;26.00;91.70;;;;;;5128875;27;20196;-73
2021/06/18 06:21:48;;;;;;;7.03;5.38;;;26.10;91.60;;;;;;5127298;27;20205;-73
2021/06/18 06:24:15;;;;;;;6.50;4.72;;;26.10;91.70;;;;;;5124627;27;20270;-73
2021/06/18 06:26:42;;;;;;;8.65;5.03;;;26.10;91.40;;;;;;5128997;27;20245;-74
2021/06/18 06:29:08;;;;;;;5.75;5.25;;;26.10;91.20;;;;;;5128595;27;20204;-74
2021/06/18 06:31:35;;;;;;;6.65;5.57;;;26.10;91.20;;;;;;5126312;27;20244;-74
2021/06/18 06:34:03;;;;;;;5.47;5.07;;;26.20;91.50;;;;;;5117833;27;20205;-74
2021/06/18 06:36:30;;;;;;;5.10;4.70;;;26.20;91.60;;;;;;5122527;27;20224;-72
2021/06/18 06:38:56;;;;;;;6.00;5.55;;;26.20;91.30;;;;;;5128777;27;20208;-72
2021/06/18 06:41:23;;;;;;;6.47;5.28;;;26.20;91.30;;;;;;5128493;27;20665;-73
2021/06/18 06:43:50;;;;;;;5.53;5.05;;;26.30;91.50;;;;;;5128242;27;20246;-73
2021/06/18 06:46:19;;;;;;;6.43;5.40;;;26.30;91.10;;;;;;5122803;27;20197;-74
2021/06/18 06:48:46;;;;;;;9.60;5.50;;;26.30;91.10;;;;;;5124477;27;20640;-74
2021/06/18 06:51:14;;;;;;;5.65;5.10;;;26.40;91.00;;;;;;5127424;27;20266;-73
2021/06/18 06:53:41;;;;;;;8.18;4.78;;;26.50;91.10;;;;;;5140326;27;20192;-72
2021/06/18 06:56:07;;;;;;;5.30;4.80;;;26.50;90.90;;;;;;5139883;27;20938;-73
2021/06/18 06:58:34;;;;;;;11.88;5.03;;;26.50;90.80;;;;;;5138852;27;20261;-72
2021/06/18 07:01:01;;;;;;;6.95;4.68;;;26.60;91.00;;;;;;5124083;27;20241;-72
2021/06/18 07:03:28;;;;;;;5.68;5.10;;;26.60;90.90;;;;;;5116708;27;20266;-72
2021/06/18 07:05:54;;;;;;;5.15;4.45;;;26.70;91.40;;;;;;5133559;27;20245;-72
2021/06/18 07:08:25;;;;;;;8.73;4.93;;;26.70;90.80;;;;;;5114637;27;20274;-72
2021/06/18 07:10:53;;;;;;;5.32;4.82;;;26.70;90.50;;;;;;5109091;27;20319;-72
2021/06/18 07:13:20;;;;;;;6.93;5.03;;;26.80;90.50;;;;;;5127506;27;20213;-72
2021/06/18 07:15:48;;;;;;;5.00;4.50;;;26.80;90.70;;;;;;5128955;27;20273;-72
2021/06/18 07:18:14;;;;;;;4.90;4.57;;;26.90;90.00;;;;;;5129131;27;20201;-72
2021/06/18 07:20:41;;;;;;;6.43;4.38;;;26.90;90.20;;;;;;5128873;27;20254;-72
2021/06/18 07:23:09;;;;;;;5.53;4.65;;;26.90;90.50;;;;;;5124526;27;20251;-72
2021/06/18 07:25:37;;;;;;;4.40;4.03;;;27.00;90.00;;;;;;5113695;27;20880;-72
2021/06/18 07:28:04;;;;;;;5.13;4.30;;;27.00;89.50;;;;;;5119619;27;20679;-73
2021/06/18 07:30:31;;;;;;;4.38;4.00;;;27.10;90.10;;;;;;5123064;27;20254;-73
2021/06/18 07:32:58;;;;;;;4.57;4.20;;;27.10;89.70;;;;;;5127921;27;20309;-73
2021/06/18 07:35:24;;;;;;;8.07;4.57;;;27.10;89.60;;;;;;5128443;27;20343;-73
2021/06/18 07:37:51;;;;;;;6.20;5.00;;;27.20;88.90;;;;;;5127437;27;20206;-73
2021/06/18 07:40:19;;;;;;;18.67;5.32;;;27.20;88.70;;;;;;5128554;28;20197;-73
2021/06/18 07:42:47;;;;;;;7.07;4.63;;;27.30;88.80;;;;;;5128318;27;20202;-73
2021/06/18 07:45:14;;;;;;;8.20;4.15;;;27.30;88.80;;;;;;5128237;28;20228;-73
2021/06/18 07:47:42;;;;;;;5.50;4.72;;;27.40;88.70;;;;;;5128707;27;20206;-73
2021/06/18 07:50:11;;;;;;;4.70;4.13;;;27.40;89.10;;;;;;5128095;28;20209;-73
2021/06/18 07:52:38;;;;;;;6.43;3.95;;;27.40;88.30;;;;;;5128242;28;20278;-72
2021/06/18 07:55:08;;;;;;;4.65;3.95;;;27.50;88.00;;;;;;5128061;28;20209;-73
2021/06/18 07:57:35;;;;;;;8.48;4.28;;;27.60;86.20;;;;;;5128143;28;20197;-73
2021/06/18 08:00:04;;;;;;;5.13;3.78;;;27.70;84.60;;;;;;5123131;28;20817;-73
2021/06/18 08:02:31;;;;;;;3.80;3.55;;;27.80;84.50;;;;;;5118480;28;20217;-74
2021/06/18 08:04:57;;;;;;;10.50;4.00;;;27.90;85.00;;;;;;5124426;28;20225;-74
2021/06/18 08:07:25;;;;;;;6.68;3.97;;;27.90;85.10;;;;;;5119891;28;20218;-74
2021/06/18 08:09:52;;;;;;;7.70;3.97;;;28.00;85.40;;;;;;5118530;28;20202;-73
2021/06/18 08:12:20;;;;;;;4.15;3.83;;;28.00;84.00;;;;;;5127462;28;20201;-72
2021/06/18 08:14:47;;;;;;;4.75;3.90;;;28.10;84.70;;;;;;5127675;28;20287;-73
2021/06/18 08:17:15;;;;;;;5.75;3.70;;;28.10;84.70;;;;;;5127511;28;20198;-72
2021/06/18 08:19:42;;;;;;;4.00;3.70;;;28.20;85.00;;;;;;5127602;27;20214;-72
2021/06/18 08:22:08;;;;;;;5.25;3.90;;;28.20;83.20;;;;;;5127282;28;20194;-72
2021/06/18 08:24:36;;;;;;;3.78;3.58;;;28.30;83.60;;;;;;5126717;28;20661;-72
2021/06/18 08:27:03;;;;;;;5.95;3.55;;;28.30;84.10;;;;;;5124342;28;20194;-72
2021/06/18 08:29:30;;;;;;;5.60;3.97;;;28.30;83.60;;;;;;5127663;27;20198;-72
2021/06/18 08:31:57;;;;;;;4.03;3.72;;;28.40;83.60;;;;;;5128307;28;20222;-72
2021/06/18 08:34:25;;;;;;;9.90;3.72;;;28.40;82.80;;;;;;5128176;28;20202;-72
2021/06/18 08:36:52;;;;;;;5.40;3.30;;;28.50;82.00;;;;;;5124105;27;20197;-72
2021/06/18 08:39:19;;;;;;;5.18;3.92;;;28.50;80.20;;;;;;5125833;28;20205;-72
2021/06/18 08:41:45;;;;;;;3.92;3.13;;;28.60;80.60;;;;;;5127372;28;20209;-72
2021/06/18 08:44:12;;;;;;;4.18;3.63;;;28.60;79.60;;;;;;5127610;28;20205;-73
2021/06/18 08:46:39;;;;;;;3.88;3.38;;;28.70;80.90;;;;;;5128153;27;20233;-72
2021/06/18 08:49:05;;;;;;;7.40;3.53;;;28.70;79.90;;;;;;5128990;27;20244;-73
2021/06/18 08:51:33;;;;;;;6.65;3.67;;;28.70;79.80;;;;;;5131738;27;20231;-73
2021/06/18 08:54:00;;;;;;;7.75;3.65;;;28.70;78.80;;;;;;5129681;27;20228;-73
2021/06/18 08:56:27;;;;;;;4.13;3.80;;;28.80;79.30;;;;;;5129306;27;20243;-72
2021/06/18 08:58:53;;;;;;;5.20;3.25;;;28.80;79.10;;;;;;5131120;27;20205;-72
2021/06/18 09:01:20;;;;;;;4.78;3.13;;;28.90;76.50;;;;;;5128404;27;20194;-73
2021/06/18 09:03:48;;;;;;;5.63;3.60;;;29.00;76.20;;;;;;5131025;27;20433;-72
2021/06/18 09:06:33;;;;;;;7.65;3.25;;;29.00;76.70;;;;;;5130863;27;20310;-72
2021/06/18 09:09:18;;;;;;;3.28;2.97;;;29.10;77.10;;;;;;5128415;27;20192;-72
2021/06/18 09:11:50;;;;;;;3.40;3.05;;;29.10;76.90;;;;;;5128557;27;20182;-72
2021/06/18 09:14:20;;;;;;;4.00;3.22;;;29.20;75.10;;;;;;5130515;27;20193;-73
2021/06/18 09:17:07;;;;;;;4.55;3.08;;;29.20;74.70;;;;;;5130913;27;20210;-72
2021/06/18 09:19:36;;;;;;;4.05;3.20;;;29.20;73.60;;;;;;5129778;27;20197;-73
2021/06/18 09:22:05;;;;;;;5.72;3.00;;;29.20;72.90;;;;;;5130527;27;20250;-72
2021/06/18 09:24:35;;;;;;;4.38;2.50;;;29.30;69.30;;;;;;5130015;27;20193;-72
2021/06/18 09:27:02;;;;;;;3.40;3.10;;;29.40;69.00;;;;;;5127829;27;20285;-72
2021/06/18 09:29:30;;;;;;;3.85;2.97;;;29.50;71.20;;;;;;5129965;27;20273;-73
2021/06/18 09:32:00;;;;;;;10.32;3.38;;;29.50;70.80;;;;;;5129556;27;20210;-72
2021/06/18 09:34:49;;;;;;;3.60;2.67;;;29.50;72.00;;;;;;5129539;27;20186;-72
2021/06/18 09:37:19;;;;;;;3.35;3.05;;;29.60;70.50;;;;;;5129150;27;20240;-73
2021/06/18 09:40:08;;;;;;;3.80;2.75;;;29.60;70.50;;;;;;5129858;27;20239;-72
2021/06/18 09:42:36;;;;;;;2.92;2.72;;;29.70;69.50;;;;;;5128719;27;20204;-72
2021/06/18 09:45:07;;;;;;;3.35;2.50;;;29.80;67.10;;;;;;5126484;27;20229;-72
2021/06/18 09:47:35;;;;;;;3.45;3.15;;;29.80;69.40;;;;;;5126651;27;20194;-72
2021/06/18 09:50:04;;;;;;;2.85;2.70;;;29.90;73.20;;;;;;5129198;27;20198;-73
2021/06/18 09:52:33;;;;;;;3.25;3.05;;;29.90;69.20;;;;;;5128652;27;20286;-73
2021/06/18 09:54:59;;;;;;;6.68;2.92;;;30.00;70.00;;;;;;5123338;27;20234;-73
2021/06/18 09:57:38;;;;;;;3.38;3.15;;;30.00;69.10;;;;;;5129059;27;20600;-73
2021/06/18 10:00:06;;;;;;;4.05;3.30;;;30.00;69.50;;;;;;5129680;27;20827;-73
2021/06/18 10:02:39;;;;;;;4.90;3.22;;;30.00;70.70;;;;;;5129665;27;20208;-73
2021/06/18 10:05:07;;;;;;;4.95;3.05;;;30.00;71.10;;;;;;5129974;27;20269;-73
2021/06/18 10:07:35;;;;;;;5.38;3.30;;;30.10;69.60;;;;;;5130684;27;20221;-73
2021/06/18 10:10:05;;;;;;;7.43;2.95;;;30.10;69.60;;;;;;5125885;27;20220;-73
2021/06/18 10:12:32;;;;;;;2.90;2.80;;;30.20;70.00;;;;;;5110045;28;20209;-73
2021/06/18 10:15:05;;;;;;;9.85;3.20;;;30.20;70.10;;;;;;5109612;28;20239;-73
2021/06/18 10:17:31;;;;;;;3.53;3.22;;;30.30;69.30;;;;;;5110543;27;20213;-73
2021/06/18 10:19:58;;;;;;;2.80;2.60;;;30.40;69.30;;;;;;5109990;28;20202;-74
2021/06/18 10:22:26;;;;;;;7.35;3.05;;;30.50;71.60;;;;;;5109631;28;20206;-73
2021/06/18 10:24:59;;;;;;;6.95;2.92;;;30.50;70.00;;;;;;5109453;28;20206;-73
2021/06/18 10:27:31;;;;;;;6.18;2.92;;;30.50;69.80;;;;;;5109553;28;20530;-73
2021/06/18 10:29:58;;;;;;;3.35;3.00;;;30.60;71.60;;;;;;5109534;28;20237;-74
2021/06/18 10:32:34;;;;;;;3.10;2.80;;;30.60;71.40;;;;;;5109350;28;20320;-74
2021/06/18 10:35:03;;;;;;;4.40;3.20;;;30.70;69.50;;;;;;5109365;28;20201;-74
2021/06/18 10:37:32;;;;;;;3.65;2.88;;;30.70;69.50;;;;;;5109283;28;20206;-72
2021/06/18 10:40:09;;;;;;;3.50;3.25;;;30.90;66.10;;;;;;5109319;28;20202;-73
2021/06/18 10:42:36;;;;;;;3.33;2.78;;;30.90;65.80;;;;;;5109056;28;20652;-73
2021/06/18 10:45:03;;;;;;;5.90;3.13;;;31.00;66.40;;;;;;5109174;28;20235;-75
2021/06/18 10:47:44;;;;;;;5.78;3.17;;;31.00;66.40;;;;;;5110972;27;20271;-73
2021/06/18 10:50:12;;;;;;;2.97;2.75;;;31.10;65.90;;;;;;5111635;27;20222;-74
2021/06/18 10:52:41;;;;;;;4.10;2.95;;;31.30;63.00;;;;;;5115177;27;20652;-74
2021/06/18 10:55:14;;;;;;;2.92;2.72;;;31.30;63.60;;;;;;5120479;27;20244;-74
2021/06/18 10:57:53;;;;;;;5.35;3.10;;;31.30;64.30;;;;;;5118177;27;20191;-73
2021/06/18 11:00:23;;;;;;;3.80;3.05;;;31.40;65.50;;;;;;5120753;27;20198;-73
2021/06/18 11:02:50;;;;;;;5.55;2.80;;;31.40;64.70;;;;;;5129171;27;20663;-73
2021/06/18 11:05:35;;;;;;;2.95;2.78;;;31.60;65.50;;;;;;5128686;27;21033;-74
2021/06/18 11:08:29;;;;;;;4.25;3.17;;;31.80;65.20;;;;;;5128742;27;20186;-74
2021/06/18 11:11:00;;;;;;;3.58;3.10;;;31.90;64.70;;;;;;5125954;27;20514;-74
2021/06/18 11:13:28;;;;;;;5.15;3.30;;;32.00;64.60;;;;;;5126685;27;20193;-74
2021/06/18 11:15:56;;;;;;;9.73;3.35;;;32.10;64.60;;;;;;5127803;27;20197;-74
2021/06/18 11:18:36;;;;;;;4.07;3.00;;;32.20;64.50;;;;;;5127856;27;20308;-74
2021/06/18 11:21:08;;;;;;;3.40;3.10;;;32.30;64.90;;;;;;5124105;27;20193;-74
2021/06/18 11:23:58;;;;;;;3.65;3.20;;;32.40;65.50;;;;;;5125435;27;20262;-73
2021/06/18 11:26:26;;;;;;;3.40;3.10;;;32.40;63.40;;;;;;5127828;27;20213;-74
2021/06/18 11:28:53;;;;;;;4.07;2.97;;;32.40;63.40;;;;;;5122384;27;20242;-74
2021/06/18 11:31:39;;;;;;;3.45;3.15;;;32.40;64.40;;;;;;5127693;27;20324;-74
2021/06/18 11:34:06;;;;;;;3.15;2.90;;;32.30;64.00;;;;;;5123793;27;20670;-74
2021/06/18 11:36:42;;;;;;;3.80;3.47;;;32.30;64.10;;;;;;5125315;28;20277;-74
2021/06/18 11:39:15;;;;;;;3.67;3.05;;;32.30;64.20;;;;;;5126976;28;20643;-74
2021/06/18 11:41:48;;;;;;;4.75;3.20;;;32.40;63.00;;;;;;5127979;28;20189;-74
2021/06/18 11:44:19;;;;;;;4.47;3.10;;;32.30;62.60;;;;;;5125360;28;20186;-74
2021/06/18 11:46:46;;;;;;;3.20;3.00;;;32.30;61.70;;;;;;5127591;28;20216;-74
2021/06/18 11:49:15;;;;;;;3.10;2.85;;;32.30;63.50;;;;;;5124379;28;20290;-74
2021/06/18 11:51:43;;;;;;;11.88;3.38;;;32.20;63.70;;;;;;5127513;28;20204;-74
2021/06/18 11:54:09;;;;;;;3.30;3.00;;;32.20;63.30;;;;;;5127712;28;20194;-74
2021/06/18 11:56:37;;;;;;;3.47;3.10;;;32.20;64.50;;;;;;5127522;27;20230;-73
2021/06/18 11:59:14;;;;;;;7.28;3.13;;;32.20;62.20;;;;;;5127764;28;20242;-74
2021/06/18 12:01:41;;;;;;;6.05;3.00;;;32.20;62.60;;;;;;5120944;28;20530;-74
2021/06/18 12:04:16;;;;;;;3.40;3.00;;;32.20;61.60;;;;;;5126633;28;20637;-74
2021/06/18 12:06:43;;;;;;;4.65;3.10;;;32.10;62.50;;;;;;5127270;27;20279;-74
2021/06/18 12:09:13;;;;;;;3.22;2.90;;;32.10;62.80;;;;;;5127043;28;20197;-74
2021/06/18 12:11:42;;;;;;;3.72;3.08;;;32.00;62.90;;;;;;5127338;28;20196;-73
2021/06/18 12:14:10;;;;;;;3.75;3.45;;;32.00;64.50;;;;;;5127319;27;20190;-74
2021/06/18 12:16:40;;;;;;;4.38;3.38;;;32.00;66.30;;;;;;5127454;28;20197;-74
2021/06/18 12:19:23;;;;;;;4.07;3.17;;;32.10;65.40;;;;;;5127371;27;20198;-73
2021/06/18 12:22:01;;;;;;;4.38;3.20;;;32.10;63.40;;;;;;5127065;28;20598;-73
2021/06/18 12:24:29;;;;;;;3.40;3.15;;;32.10;64.70;;;;;;5129401;27;20189;-73
2021/06/18 12:26:58;;;;;;;5.80;3.35;;;32.10;65.40;;;;;;5131527;27;20229;-74
2021/06/18 12:29:26;;;;;;;3.97;3.22;;;32.10;65.40;;;;;;5131683;27;20358;-73
2021/06/18 12:31:55;;;;;;;4.05;3.22;;;32.10;65.00;;;;;;5128455;27;20229;-73
2021/06/18 12:34:22;;;;;;;7.10;3.38;;;32.10;63.80;;;;;;5131638;27;20282;-73
2021/06/18 12:36:58;;;;;;;3.45;2.90;;;32.20;63.60;;;;;;5131464;27;20341;-73
2021/06/18 12:39:24;;;;;;;3.65;3.35;;;32.20;63.30;;;;;;5131534;27;20686;-74
2021/06/18 12:41:51;;;;;;;3.03;2.83;;;32.20;62.00;;;;;;5126155;27;20194;-73
2021/06/18 12:44:30;;;;;;;2.90;2.70;;;32.20;59.60;;;;;;5130324;27;20201;-74
2021/06/18 12:46:59;;;;;;;3.30;3.00;;;32.10;60.60;;;;;;5123740;27;20252;-74
2021/06/18 12:49:30;;;;;;;4.47;2.72;;;32.20;62.30;;;;;;5126338;27;20197;-74
2021/06/18 12:52:14;;;;;;;3.15;2.90;;;32.10;62.20;;;;;;5121589;27;20699;-74
2021/06/18 12:54:42;;;;;;;3.70;3.00;;;32.20;63.10;;;;;;5121354;27;20197;-73